sensor_id;sensor_type;location;lat;lon;timestamp;P1;durP1;ratioP1;P2;durP2;ratioP2
74777;SDS011;63298;53.164;8.610;2023-03-12T07:55:12;6.32;;;3.10;;
74777;SDS011;63298;53.164;8.610;2023-03-12T07:57:38;4.50;;;3.00;;
74777;SDS011;63298;53.164;8.610;2023-03-12T08:00:04;14.50;;;3.08;;
74777;SDS011;63298;53.164;8.610;2023-03-12T08:02:30;6.13;;;3.30;;
74777;SDS011;63298;53.164;8.610;2023-03-12T08:04:56;8.05;;;3.38;;
74777;SDS011;63298;53.164;8.610;2023-03-12T08:07:22;4.28;;;3.00;;
74777;SDS011;63298;53.164;8.610;2023-03-12T08:09:47;5.88;;;2.83;;
74777;SDS011;63298;53.164;8.610;2023-03-12T08:12:18;6.10;;;2.92;;
74777;SDS011;63298;53.164;8.610;2023-03-12T08:14:43;5.80;;;2.88;;
74777;SDS011;63298;53.164;8.610;2023-03-12T08:17:19;4.80;;;2.80;;
74777;SDS011;63298;53.164;8.610;2023-03-12T08:19:45;4.22;;;2.90;;
74777;SDS011;63298;53.164;8.610;2023-03-12T08:22:10;4.30;;;2.92;;
74777;SDS011;63298;53.164;8.610;2023-03-12T08:24:36;4.13;;;2.53;;
74777;SDS011;63298;53.164;8.610;2023-03-12T08:27:01;4.00;;;2.60;;
74777;SDS011;63298;53.164;8.610;2023-03-12T08:29:27;5.80;;;2.95;;
74777;SDS011;63298;53.164;8.610;2023-03-12T08:31:52;12.30;;;3.20;;
74777;SDS011;63298;53.164;8.610;2023-03-12T08:34:19;3.67;;;2.90;;
74777;SDS011;63298;53.164;8.610;2023-03-12T08:36:45;2.90;;;2.42;;
74777;SDS011;63298;53.164;8.610;2023-03-12T08:39:19;5.93;;;2.95;;
74777;SDS011;63298;53.164;8.610;2023-03-12T08:41:49;5.75;;;2.88;;
74777;SDS011;63298;53.164;8.610;2023-03-12T08:44:14;4.10;;;3.10;;
74777;SDS011;63298;53.164;8.610;2023-03-12T08:46:40;8.98;;;3.70;;
74777;SDS011;63298;53.164;8.610;2023-03-12T08:49:05;7.10;;;3.00;;
74777;SDS011;63298;53.164;8.610;2023-03-12T08:51:30;5.40;;;2.85;;
74777;SDS011;63298;53.164;8.610;2023-03-12T08:53:56;6.65;;;3.47;;
74777;SDS011;63298;53.164;8.610;2023-03-12T08:56:21;4.80;;;3.10;;
74777;SDS011;63298;53.164;8.610;2023-03-12T08:58:47;5.47;;;3.40;;
74777;SDS011;63298;53.164;8.610;2023-03-12T09:01:12;4.32;;;3.03;;
74777;SDS011;63298;53.164;8.610;2023-03-12T09:03:38;6.13;;;3.25;;
74777;SDS011;63298;53.164;8.610;2023-03-12T09:06:06;4.13;;;2.92;;
74777;SDS011;63298;53.164;8.610;2023-03-12T09:08:36;6.03;;;3.08;;
74777;SDS011;63298;53.164;8.610;2023-03-12T09:11:02;4.85;;;3.10;;
74777;SDS011;63298;53.164;8.610;2023-03-12T09:13:28;4.63;;;3.50;;
74777;SDS011;63298;53.164;8.610;2023-03-12T09:15:57;9.75;;;3.53;;
74777;SDS011;63298;53.164;8.610;2023-03-12T09:18:23;5.90;;;3.22;;
74777;SDS011;63298;53.164;8.610;2023-03-12T09:20:48;4.88;;;3.00;;
74777;SDS011;63298;53.164;8.610;2023-03-12T09:23:13;7.28;;;3.25;;
74777;SDS011;63298;53.164;8.610;2023-03-12T09:25:39;12.40;;;3.17;;
74777;SDS011;63298;53.164;8.610;2023-03-12T09:28:04;7.40;;;2.88;;
74777;SDS011;63298;53.164;8.610;2023-03-12T09:30:32;7.53;;;3.42;;
74777;SDS011;63298;53.164;8.610;2023-03-12T09:32:57;8.73;;;3.10;;
74777;SDS011;63298;53.164;8.610;2023-03-12T09:35:23;8.75;;;3.20;;
74777;SDS011;63298;53.164;8.610;2023-03-12T09:37:48;6.10;;;3.00;;
74777;SDS011;63298;53.164;8.610;2023-03-12T09:40:18;5.75;;;3.13;;
74777;SDS011;63298;53.164;8.610;2023-03-12T09:42:58;4.93;;;2.80;;
74777;SDS011;63298;53.164;8.610;2023-03-12T09:45:29;3.33;;;2.75;;
74777;SDS011;63298;53.164;8.610;2023-03-12T09:47:58;4.65;;;2.80;;
74777;SDS011;63298;53.164;8.610;2023-03-12T09:50:27;5.03;;;2.58;;
74777;SDS011;63298;53.164;8.610;2023-03-12T09:55:34;5.53;;;3.00;;
74777;SDS011;63298;53.164;8.610;2023-03-12T09:58:02;5.45;;;2.95;;
74777;SDS011;63298;53.164;8.610;2023-03-12T10:00:33;3.42;;;2.55;;
74777;SDS011;63298;53.164;8.610;2023-03-12T10:05:33;7.40;;;3.00;;
74777;SDS011;63298;53.164;8.610;2023-03-12T10:10:54;6.40;;;2.63;;
74777;SDS011;63298;53.164;8.610;2023-03-12T10:13:37;4.28;;;2.20;;
74777;SDS011;63298;53.164;8.610;2023-03-12T10:16:13;6.53;;;2.38;;
74777;SDS011;63298;53.164;8.610;2023-03-12T10:21:43;7.38;;;2.97;;
74777;SDS011;63298;53.164;8.610;2023-03-12T10:27:26;5.53;;;2.55;;
74777;SDS011;63298;53.164;8.610;2023-03-12T10:29:53;3.67;;;2.15;;
74777;SDS011;63298;53.164;8.610;2023-03-12T10:32:21;2.72;;;2.22;;
74777;SDS011;63298;53.164;8.610;2023-03-12T10:34:55;3.58;;;2.25;;
74777;SDS011;63298;53.164;8.610;2023-03-12T10:37:28;5.78;;;2.70;;
74777;SDS011;63298;53.164;8.610;2023-03-12T10:40:14;2.60;;;2.38;;
74777;SDS011;63298;53.164;8.610;2023-03-12T10:42:45;5.30;;;1.92;;
74777;SDS011;63298;53.164;8.610;2023-03-12T10:47:36;2.80;;;1.95;;
74777;SDS011;63298;53.164;8.610;2023-03-12T10:50:13;4.25;;;2.10;;
74777;SDS011;63298;53.164;8.610;2023-03-12T10:53:13;5.82;;;2.20;;
74777;SDS011;63298;53.164;8.610;2023-03-12T10:55:56;4.75;;;2.33;;
74777;SDS011;63298;53.164;8.610;2023-03-12T10:58:43;2.42;;;1.90;;
74777;SDS011;63298;53.164;8.610;2023-03-12T11:01:15;4.15;;;1.88;;
74777;SDS011;63298;53.164;8.610;2023-03-12T11:03:50;2.30;;;2.05;;
74777;SDS011;63298;53.164;8.610;2023-03-12T11:06:21;3.13;;;2.03;;
74777;SDS011;63298;53.164;8.610;2023-03-12T11:11:34;2.95;;;1.50;;
74777;SDS011;63298;53.164;8.610;2023-03-12T11:14:04;4.05;;;1.70;;
74777;SDS011;63298;53.164;8.610;2023-03-12T11:16:42;5.78;;;1.90;;
74777;SDS011;63298;53.164;8.610;2023-03-12T11:19:10;5.03;;;1.98;;
74777;SDS011;63298;53.164;8.610;2023-03-12T11:21:37;8.23;;;2.83;;
74777;SDS011;63298;53.164;8.610;2023-03-12T11:24:10;7.95;;;2.05;;
74777;SDS011;63298;53.164;8.610;2023-03-12T11:29:27;3.88;;;1.77;;
74777;SDS011;63298;53.164;8.610;2023-03-12T11:31:58;5.65;;;2.10;;
74777;SDS011;63298;53.164;8.610;2023-03-12T11:34:28;5.90;;;1.90;;
74777;SDS011;63298;53.164;8.610;2023-03-12T11:37:07;6.95;;;2.58;;
74777;SDS011;63298;53.164;8.610;2023-03-12T11:42:18;3.20;;;1.98;;
74777;SDS011;63298;53.164;8.610;2023-03-12T11:47:59;3.38;;;2.20;;
74777;SDS011;63298;53.164;8.610;2023-03-12T11:56:45;4.03;;;2.20;;
74777;SDS011;63298;53.164;8.610;2023-03-12T11:59:31;6.82;;;2.65;;
74777;SDS011;63298;53.164;8.610;2023-03-12T12:10:01;5.97;;;2.80;;
74777;SDS011;63298;53.164;8.610;2023-03-12T12:15:13;3.78;;;2.60;;
74777;SDS011;63298;53.164;8.610;2023-03-12T12:17:53;5.60;;;2.80;;
74777;SDS011;63298;53.164;8.610;2023-03-12T12:20:47;2.63;;;2.42;;
74777;SDS011;63298;53.164;8.610;2023-03-12T12:26:23;7.07;;;2.92;;
74777;SDS011;63298;53.164;8.610;2023-03-12T12:32:17;6.05;;;2.92;;
74777;SDS011;63298;53.164;8.610;2023-03-12T12:45:56;3.58;;;2.55;;
74777;SDS011;63298;53.164;8.610;2023-03-12T12:48:27;2.75;;;2.55;;
74777;SDS011;63298;53.164;8.610;2023-03-12T12:50:58;2.90;;;2.47;;
74777;SDS011;63298;53.164;8.610;2023-03-12T12:53:28;6.22;;;3.20;;
74777;SDS011;63298;53.164;8.610;2023-03-12T12:56:37;6.13;;;2.80;;
74777;SDS011;63298;53.164;8.610;2023-03-12T13:01:44;3.60;;;2.38;;
74777;SDS011;63298;53.164;8.610;2023-03-12T13:04:25;3.65;;;2.75;;
74777;SDS011;63298;53.164;8.610;2023-03-12T13:09:36;3.17;;;2.95;;
74777;SDS011;63298;53.164;8.610;2023-03-12T13:12:15;2.95;;;2.70;;
74777;SDS011;63298;53.164;8.610;2023-03-12T13:14:56;3.53;;;2.70;;
74777;SDS011;63298;53.164;8.610;2023-03-12T13:17:29;4.78;;;3.05;;
74777;SDS011;63298;53.164;8.610;2023-03-12T13:20:21;2.90;;;2.60;;
74777;SDS011;63298;53.164;8.610;2023-03-12T13:30:52;4.80;;;2.83;;
74777;SDS011;63298;53.164;8.610;2023-03-12T13:33:18;3.55;;;3.20;;
74777;SDS011;63298;53.164;8.610;2023-03-12T13:36:11;2.72;;;2.53;;
74777;SDS011;63298;53.164;8.610;2023-03-12T13:38:55;2.70;;;2.50;;
74777;SDS011;63298;53.164;8.610;2023-03-12T13:49:42;3.72;;;2.97;;
74777;SDS011;63298;53.164;8.610;2023-03-12T13:54:43;5.45;;;2.90;;
74777;SDS011;63298;53.164;8.610;2023-03-12T13:59:58;3.35;;;2.47;;
74777;SDS011;63298;53.164;8.610;2023-03-12T14:02:34;4.57;;;3.00;;
74777;SDS011;63298;53.164;8.610;2023-03-12T14:05:05;3.13;;;2.90;;
74777;SDS011;63298;53.164;8.610;2023-03-12T14:13:38;3.55;;;2.88;;
74777;SDS011;63298;53.164;8.610;2023-03-12T14:16:17;4.90;;;3.13;;
74777;SDS011;63298;53.164;8.610;2023-03-12T14:18:50;4.72;;;3.20;;
74777;SDS011;63298;53.164;8.610;2023-03-12T14:21:17;5.70;;;3.33;;
74777;SDS011;63298;53.164;8.610;2023-03-12T14:23:56;4.32;;;3.50;;
74777;SDS011;63298;53.164;8.610;2023-03-12T14:26:27;3.13;;;2.83;;
74777;SDS011;63298;53.164;8.610;2023-03-12T14:29:00;5.18;;;3.22;;
74777;SDS011;63298;53.164;8.610;2023-03-12T14:31:38;4.20;;;3.33;;
74777;SDS011;63298;53.164;8.610;2023-03-12T14:34:21;5.05;;;3.75;;
74777;SDS011;63298;53.164;8.610;2023-03-12T14:42:48;4.50;;;3.80;;
74777;SDS011;63298;53.164;8.610;2023-03-12T14:45:15;7.38;;;4.50;;
74777;SDS011;63298;53.164;8.610;2023-03-12T14:47:43;5.95;;;4.18;;
74777;SDS011;63298;53.164;8.610;2023-03-12T14:50:18;6.43;;;4.82;;
74777;SDS011;63298;53.164;8.610;2023-03-12T14:52:51;6.63;;;4.78;;
74777;SDS011;63298;53.164;8.610;2023-03-12T14:55:19;7.90;;;4.97;;
74777;SDS011;63298;53.164;8.610;2023-03-12T14:57:47;8.52;;;4.75;;
74777;SDS011;63298;53.164;8.610;2023-03-12T15:00:19;6.28;;;5.22;;
74777;SDS011;63298;53.164;8.610;2023-03-12T15:02:47;9.70;;;5.55;;
74777;SDS011;63298;53.164;8.610;2023-03-12T15:05:17;7.82;;;5.55;;
74777;SDS011;63298;53.164;8.610;2023-03-12T15:07:44;10.68;;;5.43;;
74777;SDS011;63298;53.164;8.610;2023-03-12T15:10:26;6.65;;;5.60;;
74777;SDS011;63298;53.164;8.610;2023-03-12T15:12:54;7.68;;;5.68;;
74777;SDS011;63298;53.164;8.610;2023-03-12T15:15:26;8.25;;;5.60;;
74777;SDS011;63298;53.164;8.610;2023-03-12T15:17:59;6.68;;;5.97;;
74777;SDS011;63298;53.164;8.610;2023-03-12T15:20:25;8.32;;;6.25;;
74777;SDS011;63298;53.164;8.610;2023-03-12T15:22:51;10.98;;;6.07;;
74777;SDS011;63298;53.164;8.610;2023-03-12T15:31:02;8.95;;;6.88;;
74777;SDS011;63298;53.164;8.610;2023-03-12T15:33:41;11.30;;;6.85;;
74777;SDS011;63298;53.164;8.610;2023-03-12T15:38:43;13.40;;;7.35;;
74777;SDS011;63298;53.164;8.610;2023-03-12T15:41:15;12.27;;;7.95;;
74777;SDS011;63298;53.164;8.610;2023-03-12T15:43:44;13.70;;;7.60;;
74777;SDS011;63298;53.164;8.610;2023-03-12T15:46:16;10.75;;;7.47;;
74777;SDS011;63298;53.164;8.610;2023-03-12T15:48:44;11.50;;;7.38;;
74777;SDS011;63298;53.164;8.610;2023-03-12T15:51:24;10.95;;;6.85;;
74777;SDS011;63298;53.164;8.610;2023-03-12T15:54:42;12.23;;;8.13;;
74777;SDS011;63298;53.164;8.610;2023-03-12T15:56:42;12.23;;;7.45;;
74777;SDS011;63298;53.164;8.610;2023-03-12T16:01:43;13.13;;;8.38;;
74777;SDS011;63298;53.164;8.610;2023-03-12T16:04:10;15.63;;;9.43;;
74777;SDS011;63298;53.164;8.610;2023-03-12T16:06:35;13.00;;;8.48;;
74777;SDS011;63298;53.164;8.610;2023-03-12T16:09:00;15.43;;;9.20;;
74777;SDS011;63298;53.164;8.610;2023-03-12T16:11:28;14.32;;;8.88;;
74777;SDS011;63298;53.164;8.610;2023-03-12T16:14:01;12.73;;;7.78;;
74777;SDS011;63298;53.164;8.610;2023-03-12T16:16:28;16.65;;;9.00;;
74777;SDS011;63298;53.164;8.610;2023-03-12T16:18:54;13.05;;;8.27;;
74777;SDS011;63298;53.164;8.610;2023-03-12T16:21:19;18.83;;;10.52;;
74777;SDS011;63298;53.164;8.610;2023-03-12T16:23:44;14.60;;;9.50;;
74777;SDS011;63298;53.164;8.610;2023-03-12T16:26:10;14.68;;;9.32;;
74777;SDS011;63298;53.164;8.610;2023-03-12T16:28:36;14.75;;;9.55;;
74777;SDS011;63298;53.164;8.610;2023-03-12T16:31:02;13.13;;;8.80;;
74777;SDS011;63298;53.164;8.610;2023-03-12T16:33:33;15.75;;;9.60;;
74777;SDS011;63298;53.164;8.610;2023-03-12T16:35:58;13.97;;;8.60;;
74777;SDS011;63298;53.164;8.610;2023-03-12T16:38:24;14.48;;;7.72;;
74777;SDS011;63298;53.164;8.610;2023-03-12T16:40:50;20.33;;;8.85;;
74777;SDS011;63298;53.164;8.610;2023-03-12T16:43:18;17.70;;;9.73;;
74777;SDS011;63298;53.164;8.610;2023-03-12T16:45:48;16.52;;;9.00;;
74777;SDS011;63298;53.164;8.610;2023-03-12T16:48:18;17.60;;;8.95;;
74777;SDS011;63298;53.164;8.610;2023-03-12T16:50:50;19.67;;;9.57;;
74777;SDS011;63298;53.164;8.610;2023-03-12T16:53:17;21.58;;;8.73;;
74777;SDS011;63298;53.164;8.610;2023-03-12T16:55:44;27.15;;;9.93;;
74777;SDS011;63298;53.164;8.610;2023-03-12T16:58:14;22.33;;;9.63;;
74777;SDS011;63298;53.164;8.610;2023-03-12T17:00:41;19.73;;;9.80;;
74777;SDS011;63298;53.164;8.610;2023-03-12T17:06:01;25.63;;;10.05;;
74777;SDS011;63298;53.164;8.610;2023-03-12T17:08:27;39.42;;;12.10;;
74777;SDS011;63298;53.164;8.610;2023-03-12T17:10:53;27.83;;;10.20;;
74777;SDS011;63298;53.164;8.610;2023-03-12T17:13:21;30.60;;;10.60;;
74777;SDS011;63298;53.164;8.610;2023-03-12T17:15:48;26.33;;;11.18;;
74777;SDS011;63298;53.164;8.610;2023-03-12T17:18:14;32.20;;;10.90;;
74777;SDS011;63298;53.164;8.610;2023-03-12T17:20:40;28.25;;;10.65;;
74777;SDS011;63298;53.164;8.610;2023-03-12T17:23:08;30.45;;;10.32;;
74777;SDS011;63298;53.164;8.610;2023-03-12T17:25:46;26.92;;;9.52;;
74777;SDS011;63298;53.164;8.610;2023-03-12T17:28:15;35.25;;;10.48;;
74777;SDS011;63298;53.164;8.610;2023-03-12T17:30:41;30.42;;;11.10;;
74777;SDS011;63298;53.164;8.610;2023-03-12T17:33:09;32.80;;;12.02;;
74777;SDS011;63298;53.164;8.610;2023-03-12T17:35:36;33.80;;;11.10;;
74777;SDS011;63298;53.164;8.610;2023-03-12T17:38:01;25.77;;;10.45;;
74777;SDS011;63298;53.164;8.610;2023-03-12T17:40:27;34.13;;;10.65;;
74777;SDS011;63298;53.164;8.610;2023-03-12T17:42:53;25.50;;;10.95;;
74777;SDS011;63298;53.164;8.610;2023-03-12T17:45:18;29.13;;;10.73;;
74777;SDS011;63298;53.164;8.610;2023-03-12T17:47:44;37.15;;;10.77;;
74777;SDS011;63298;53.164;8.610;2023-03-12T17:50:09;27.23;;;9.77;;
74777;SDS011;63298;53.164;8.610;2023-03-12T17:52:35;21.30;;;9.43;;
74777;SDS011;63298;53.164;8.610;2023-03-12T17:55:00;31.88;;;9.93;;
74777;SDS011;63298;53.164;8.610;2023-03-12T17:57:26;21.38;;;8.95;;
74777;SDS011;63298;53.164;8.610;2023-03-12T17:59:51;32.75;;;8.20;;
74777;SDS011;63298;53.164;8.610;2023-03-12T18:02:17;31.30;;;8.95;;
74777;SDS011;63298;53.164;8.610;2023-03-12T18:04:42;29.42;;;9.77;;
74777;SDS011;63298;53.164;8.610;2023-03-12T18:07:09;27.85;;;9.63;;
74777;SDS011;63298;53.164;8.610;2023-03-12T18:09:34;33.35;;;9.23;;
74777;SDS011;63298;53.164;8.610;2023-03-12T18:11:59;27.00;;;9.07;;
74777;SDS011;63298;53.164;8.610;2023-03-12T18:14:25;24.55;;;8.60;;
74777;SDS011;63298;53.164;8.610;2023-03-12T18:16:50;19.42;;;7.78;;
74777;SDS011;63298;53.164;8.610;2023-03-12T18:19:15;24.33;;;8.30;;
74777;SDS011;63298;53.164;8.610;2023-03-12T18:21:41;20.88;;;8.52;;
74777;SDS011;63298;53.164;8.610;2023-03-12T18:24:06;24.02;;;7.88;;
74777;SDS011;63298;53.164;8.610;2023-03-12T18:26:32;24.83;;;7.78;;
74777;SDS011;63298;53.164;8.610;2023-03-12T18:28:57;25.02;;;7.53;;
74777;SDS011;63298;53.164;8.610;2023-03-12T18:31:26;33.05;;;8.68;;
74777;SDS011;63298;53.164;8.610;2023-03-12T18:33:52;32.60;;;9.38;;
74777;SDS011;63298;53.164;8.610;2023-03-12T18:36:17;38.38;;;9.13;;
74777;SDS011;63298;53.164;8.610;2023-03-12T18:38:43;25.80;;;8.45;;
74777;SDS011;63298;53.164;8.610;2023-03-12T18:41:09;23.70;;;7.45;;
74777;SDS011;63298;53.164;8.610;2023-03-12T18:43:36;33.72;;;7.93;;
74777;SDS011;63298;53.164;8.610;2023-03-12T18:46:02;26.88;;;6.50;;
74777;SDS011;63298;53.164;8.610;2023-03-12T18:48:28;33.83;;;8.07;;
74777;SDS011;63298;53.164;8.610;2023-03-12T18:50:53;23.80;;;6.97;;
74777;SDS011;63298;53.164;8.610;2023-03-12T18:53:18;18.20;;;5.80;;
74777;SDS011;63298;53.164;8.610;2023-03-12T18:55:50;23.90;;;7.43;;
74777;SDS011;63298;53.164;8.610;2023-03-12T18:58:16;35.13;;;6.95;;
74777;SDS011;63298;53.164;8.610;2023-03-12T19:00:41;26.25;;;6.72;;
74777;SDS011;63298;53.164;8.610;2023-03-12T19:03:07;24.23;;;6.53;;
74777;SDS011;63298;53.164;8.610;2023-03-12T19:05:32;34.97;;;7.28;;
74777;SDS011;63298;53.164;8.610;2023-03-12T19:07:58;32.42;;;6.90;;
74777;SDS011;63298;53.164;8.610;2023-03-12T19:10:24;19.98;;;5.60;;
74777;SDS011;63298;53.164;8.610;2023-03-12T19:12:50;33.30;;;5.90;;
74777;SDS011;63298;53.164;8.610;2023-03-12T19:15:15;26.65;;;5.50;;
74777;SDS011;63298;53.164;8.610;2023-03-12T19:17:41;25.40;;;5.38;;
74777;SDS011;63298;53.164;8.610;2023-03-12T19:20:06;33.75;;;6.68;;
74777;SDS011;63298;53.164;8.610;2023-03-12T19:22:32;37.30;;;7.93;;
74777;SDS011;63298;53.164;8.610;2023-03-12T19:24:57;25.75;;;4.95;;
74777;SDS011;63298;53.164;8.610;2023-03-12T19:27:22;31.52;;;5.88;;
74777;SDS011;63298;53.164;8.610;2023-03-12T19:29:48;22.33;;;5.10;;
74777;SDS011;63298;53.164;8.610;2023-03-12T19:32:13;29.98;;;5.13;;
74777;SDS011;63298;53.164;8.610;2023-03-12T19:34:38;28.55;;;5.03;;
74777;SDS011;63298;53.164;8.610;2023-03-12T19:37:04;29.30;;;5.65;;
74777;SDS011;63298;53.164;8.610;2023-03-12T19:39:29;27.08;;;5.82;;
74777;SDS011;63298;53.164;8.610;2023-03-12T19:41:54;28.58;;;5.28;;
74777;SDS011;63298;53.164;8.610;2023-03-12T19:44:20;26.00;;;5.00;;
74777;SDS011;63298;53.164;8.610;2023-03-12T19:46:45;28.73;;;4.65;;
74777;SDS011;63298;53.164;8.610;2023-03-12T19:49:10;26.15;;;5.60;;
74777;SDS011;63298;53.164;8.610;2023-03-12T19:51:39;35.55;;;6.32;;
74777;SDS011;63298;53.164;8.610;2023-03-12T19:54:04;29.58;;;4.90;;
74777;SDS011;63298;53.164;8.610;2023-03-12T19:56:29;25.90;;;4.20;;
74777;SDS011;63298;53.164;8.610;2023-03-12T19:58:55;21.42;;;4.32;;
74777;SDS011;63298;53.164;8.610;2023-03-12T20:01:20;28.92;;;5.68;;
74777;SDS011;63298;53.164;8.610;2023-03-12T20:03:45;33.53;;;5.60;;
74777;SDS011;63298;53.164;8.610;2023-03-12T20:06:11;29.90;;;5.10;;
74777;SDS011;63298;53.164;8.610;2023-03-12T20:08:36;26.75;;;4.53;;
74777;SDS011;63298;53.164;8.610;2023-03-12T20:11:04;24.90;;;3.85;;
74777;SDS011;63298;53.164;8.610;2023-03-12T20:13:32;29.05;;;4.90;;
74777;SDS011;63298;53.164;8.610;2023-03-12T20:15:58;20.58;;;4.00;;
74777;SDS011;63298;53.164;8.610;2023-03-12T20:18:24;22.02;;;3.58;;
74777;SDS011;63298;53.164;8.610;2023-03-12T20:20:49;24.63;;;3.83;;
74777;SDS011;63298;53.164;8.610;2023-03-12T20:23:15;22.05;;;3.50;;
74777;SDS011;63298;53.164;8.610;2023-03-12T20:25:40;29.92;;;4.72;;
74777;SDS011;63298;53.164;8.610;2023-03-12T20:28:06;18.48;;;3.40;;
74777;SDS011;63298;53.164;8.610;2023-03-12T20:30:39;28.63;;;3.85;;
74777;SDS011;63298;53.164;8.610;2023-03-12T20:33:04;23.17;;;4.32;;
74777;SDS011;63298;53.164;8.610;2023-03-12T20:35:30;21.38;;;3.63;;
74777;SDS011;63298;53.164;8.610;2023-03-12T20:37:56;25.23;;;4.30;;
74777;SDS011;63298;53.164;8.610;2023-03-12T20:40:22;29.38;;;4.90;;
74777;SDS011;63298;53.164;8.610;2023-03-12T20:42:47;29.50;;;4.30;;
74777;SDS011;63298;53.164;8.610;2023-03-12T20:45:12;29.80;;;6.35;;
74777;SDS011;63298;53.164;8.610;2023-03-12T20:47:38;24.60;;;4.50;;
74777;SDS011;63298;53.164;8.610;2023-03-12T20:50:03;22.45;;;4.10;;
74777;SDS011;63298;53.164;8.610;2023-03-12T20:52:29;21.73;;;3.80;;
74777;SDS011;63298;53.164;8.610;2023-03-12T20:54:54;24.15;;;4.95;;
74777;SDS011;63298;53.164;8.610;2023-03-12T20:57:19;32.08;;;5.45;;
74777;SDS011;63298;53.164;8.610;2023-03-12T20:59:45;33.63;;;5.93;;
74777;SDS011;63298;53.164;8.610;2023-03-12T21:02:11;25.48;;;5.80;;
74777;SDS011;63298;53.164;8.610;2023-03-12T21:04:37;30.23;;;6.15;;
74777;SDS011;63298;53.164;8.610;2023-03-12T21:07:02;21.27;;;5.25;;
74777;SDS011;63298;53.164;8.610;2023-03-12T21:09:27;30.42;;;5.28;;
74777;SDS011;63298;53.164;8.610;2023-03-12T21:11:54;27.35;;;5.20;;
74777;SDS011;63298;53.164;8.610;2023-03-12T21:14:19;23.40;;;4.95;;
74777;SDS011;63298;53.164;8.610;2023-03-12T21:16:45;26.00;;;5.32;;
74777;SDS011;63298;53.164;8.610;2023-03-12T21:19:10;28.15;;;6.25;;
74777;SDS011;63298;53.164;8.610;2023-03-12T21:21:35;23.00;;;5.15;;
74777;SDS011;63298;53.164;8.610;2023-03-12T21:24:01;30.77;;;4.90;;
74777;SDS011;63298;53.164;8.610;2023-03-12T21:26:26;16.35;;;4.75;;
74777;SDS011;63298;53.164;8.610;2023-03-12T21:28:52;29.07;;;5.23;;
74777;SDS011;63298;53.164;8.610;2023-03-12T21:31:17;29.60;;;5.05;;
74777;SDS011;63298;53.164;8.610;2023-03-12T21:33:43;25.35;;;5.72;;
74777;SDS011;63298;53.164;8.610;2023-03-12T21:36:09;21.05;;;4.43;;
74777;SDS011;63298;53.164;8.610;2023-03-12T21:38:37;21.77;;;4.85;;
74777;SDS011;63298;53.164;8.610;2023-03-12T21:41:07;27.10;;;4.35;;
74777;SDS011;63298;53.164;8.610;2023-03-12T21:43:34;27.80;;;4.45;;
74777;SDS011;63298;53.164;8.610;2023-03-12T21:46:04;26.85;;;4.60;;
74777;SDS011;63298;53.164;8.610;2023-03-12T21:48:34;21.17;;;4.13;;
74777;SDS011;63298;53.164;8.610;2023-03-12T21:51:07;22.20;;;3.92;;
74777;SDS011;63298;53.164;8.610;2023-03-12T21:53:34;34.75;;;4.50;;
74777;SDS011;63298;53.164;8.610;2023-03-12T21:59:04;20.17;;;3.97;;
74777;SDS011;63298;53.164;8.610;2023-03-12T22:01:30;27.15;;;4.10;;
74777;SDS011;63298;53.164;8.610;2023-03-12T22:03:57;22.70;;;3.50;;
74777;SDS011;63298;53.164;8.610;2023-03-12T22:06:23;29.17;;;4.63;;
74777;SDS011;63298;53.164;8.610;2023-03-12T22:08:49;23.23;;;3.15;;
74777;SDS011;63298;53.164;8.610;2023-03-12T22:11:14;23.25;;;4.35;;
74777;SDS011;63298;53.164;8.610;2023-03-12T22:13:40;26.55;;;3.65;;
74777;SDS011;63298;53.164;8.610;2023-03-12T22:16:06;23.58;;;3.67;;
74777;SDS011;63298;53.164;8.610;2023-03-12T22:18:32;17.75;;;2.83;;
74777;SDS011;63298;53.164;8.610;2023-03-12T22:21:01;20.88;;;3.97;;
74777;SDS011;63298;53.164;8.610;2023-03-12T22:23:27;24.02;;;3.78;;
74777;SDS011;63298;53.164;8.610;2023-03-12T22:25:53;29.50;;;4.28;;
74777;SDS011;63298;53.164;8.610;2023-03-12T22:28:19;34.80;;;4.13;;
74777;SDS011;63298;53.164;8.610;2023-03-12T22:30:47;24.85;;;3.30;;
74777;SDS011;63298;53.164;8.610;2023-03-12T22:33:12;19.60;;;3.60;;
74777;SDS011;63298;53.164;8.610;2023-03-12T22:35:44;16.42;;;3.20;;
74777;SDS011;63298;53.164;8.610;2023-03-12T22:38:10;26.38;;;3.30;;
74777;SDS011;63298;53.164;8.610;2023-03-12T22:40:36;20.80;;;3.97;;
74777;SDS011;63298;53.164;8.610;2023-03-12T22:43:02;18.58;;;3.35;;
74777;SDS011;63298;53.164;8.610;2023-03-12T22:45:27;19.13;;;3.55;;
74777;SDS011;63298;53.164;8.610;2023-03-12T22:47:52;20.27;;;3.70;;
74777;SDS011;63298;53.164;8.610;2023-03-12T22:50:18;21.65;;;4.22;;
74777;SDS011;63298;53.164;8.610;2023-03-12T22:52:44;21.05;;;3.85;;
74777;SDS011;63298;53.164;8.610;2023-03-12T22:55:09;22.40;;;4.20;;
74777;SDS011;63298;53.164;8.610;2023-03-12T22:57:35;21.98;;;3.65;;
74777;SDS011;63298;53.164;8.610;2023-03-12T23:00:05;19.33;;;3.60;;
74777;SDS011;63298;53.164;8.610;2023-03-12T23:02:34;28.17;;;4.35;;
74777;SDS011;63298;53.164;8.610;2023-03-12T23:04:59;17.17;;;4.75;;
74777;SDS011;63298;53.164;8.610;2023-03-12T23:07:25;22.27;;;4.07;;
74777;SDS011;63298;53.164;8.610;2023-03-12T23:09:50;19.10;;;3.60;;
74777;SDS011;63298;53.164;8.610;2023-03-12T23:12:15;20.58;;;3.97;;
74777;SDS011;63298;53.164;8.610;2023-03-12T23:14:44;22.08;;;4.20;;
74777;SDS011;63298;53.164;8.610;2023-03-12T23:17:09;22.95;;;4.80;;
74777;SDS011;63298;53.164;8.610;2023-03-12T23:19:34;15.07;;;3.53;;
74777;SDS011;63298;53.164;8.610;2023-03-12T23:22:00;22.38;;;4.50;;
74777;SDS011;63298;53.164;8.610;2023-03-12T23:24:25;27.15;;;4.20;;
74777;SDS011;63298;53.164;8.610;2023-03-12T23:26:50;19.73;;;3.80;;
74777;SDS011;63298;53.164;8.610;2023-03-12T23:29:16;21.40;;;4.25;;
74777;SDS011;63298;53.164;8.610;2023-03-12T23:31:41;18.27;;;4.45;;
74777;SDS011;63298;53.164;8.610;2023-03-12T23:34:07;24.05;;;5.10;;
74777;SDS011;63298;53.164;8.610;2023-03-12T23:36:33;27.90;;;5.40;;
74777;SDS011;63298;53.164;8.610;2023-03-12T23:38:59;30.85;;;5.05;;
74777;SDS011;63298;53.164;8.610;2023-03-12T23:41:25;19.40;;;4.93;;
74777;SDS011;63298;53.164;8.610;2023-03-12T23:43:52;23.48;;;4.82;;
74777;SDS011;63298;53.164;8.610;2023-03-12T23:46:17;20.92;;;4.85;;
74777;SDS011;63298;53.164;8.610;2023-03-12T23:48:43;32.90;;;5.57;;
74777;SDS011;63298;53.164;8.610;2023-03-12T23:51:13;25.00;;;4.22;;
74777;SDS011;63298;53.164;8.610;2023-03-12T23:53:41;21.92;;;4.82;;
74777;SDS011;63298;53.164;8.610;2023-03-12T23:56:09;22.63;;;4.72;;
74777;SDS011;63298;53.164;8.610;2023-03-12T23:58:39;28.73;;;5.18;;
